sensor_id;sensor_type;location;lat;lon;timestamp;temperature;humidity
50816;DHT22;39717;47.324;8.788;2022-09-20T00:48:40;8.30;99.90
50816;DHT22;39717;47.324;8.788;2022-09-20T00:51:12;8.20;99.90
50816;DHT22;39717;47.324;8.788;2022-09-20T00:53:43;8.10;99.90
50816;DHT22;39717;47.324;8.788;2022-09-20T00:56:14;8.10;99.90
50816;DHT22;39717;47.324;8.788;2022-09-20T00:59:30;8.10;99.90
50816;DHT22;39717;47.324;8.788;2022-09-20T01:01:30;8.10;99.90
50816;DHT22;39717;47.324;8.788;2022-09-20T01:03:57;8.00;99.90
50816;DHT22;39717;47.324;8.788;2022-09-20T01:06:25;8.00;99.90
50816;DHT22;39717;47.324;8.788;2022-09-20T01:08:54;8.00;99.90
50816;DHT22;39717;47.324;8.788;2022-09-20T01:11:22;8.00;99.90
50816;DHT22;39717;47.324;8.788;2022-09-20T01:13:47;7.90;99.90
50816;DHT22;39717;47.324;8.788;2022-09-20T01:16:14;7.90;99.90
50816;DHT22;39717;47.324;8.788;2022-09-20T01:18:43;7.90;99.90
50816;DHT22;39717;47.324;8.788;2022-09-20T01:21:11;7.80;99.90
50816;DHT22;39717;47.324;8.788;2022-09-20T01:23:45;7.80;99.90
50816;DHT22;39717;47.324;8.788;2022-09-20T01:29:30;7.70;99.90
50816;DHT22;39717;47.324;8.788;2022-09-20T01:31:59;7.70;99.90
50816;DHT22;39717;47.324;8.788;2022-09-20T01:34:28;7.70;99.90
50816;DHT22;39717;47.324;8.788;2022-09-20T01:37:46;7.70;99.90
50816;DHT22;39717;47.324;8.788;2022-09-20T01:42:42;7.50;99.90
50816;DHT22;39717;47.324;8.788;2022-09-20T02:03:46;7.30;99.90
50816;DHT22;39717;47.324;8.788;2022-09-20T02:17:16;7.40;99.90
50816;DHT22;39717;47.324;8.788;2022-09-20T02:23:23;7.20;99.90
50816;DHT22;39717;47.324;8.788;2022-09-20T02:29:35;7.30;99.90
50816;DHT22;39717;47.324;8.788;2022-09-20T02:32:20;7.30;99.90
50816;DHT22;39717;47.324;8.788;2022-09-20T02:35:10;7.30;99.90
50816;DHT22;39717;47.324;8.788;2022-09-20T02:48:15;7.30;99.90
50816;DHT22;39717;47.324;8.788;2022-09-20T02:50:53;7.20;99.90
50816;DHT22;39717;47.324;8.788;2022-09-20T02:53:44;7.10;99.90
50816;DHT22;39717;47.324;8.788;2022-09-20T03:05:00;7.10;99.90
50816;DHT22;39717;47.324;8.788;2022-09-20T03:10:26;7.10;99.90
50816;DHT22;39717;47.324;8.788;2022-09-20T03:15:31;7.00;99.90
50816;DHT22;39717;47.324;8.788;2022-09-20T03:23:09;6.90;99.90
50816;DHT22;39717;47.324;8.788;2022-09-20T03:25:56;6.90;99.90
50816;DHT22;39717;47.324;8.788;2022-09-20T03:28:36;6.90;99.90
50816;DHT22;39717;47.324;8.788;2022-09-20T03:33:51;6.80;99.90
50816;DHT22;39717;47.324;8.788;2022-09-20T03:39:10;6.70;99.90
50816;DHT22;39717;47.324;8.788;2022-09-20T03:47:45;6.80;99.90
50816;DHT22;39717;47.324;8.788;2022-09-20T03:55:48;6.70;99.90
50816;DHT22;39717;47.324;8.788;2022-09-20T04:01:35;6.80;99.90
50816;DHT22;39717;47.324;8.788;2022-09-20T04:09:49;6.50;99.90
50816;DHT22;39717;47.324;8.788;2022-09-20T04:12:27;6.50;99.90
50816;DHT22;39717;47.324;8.788;2022-09-20T04:21:48;6.50;99.90
50816;DHT22;39717;47.324;8.788;2022-09-20T04:23:58;6.60;99.90
50816;DHT22;39717;47.324;8.788;2022-09-20T04:26:29;6.50;99.90
50816;DHT22;39717;47.324;8.788;2022-09-20T04:31:44;6.60;99.90
50816;DHT22;39717;47.324;8.788;2022-09-20T04:34:57;6.60;99.90
50816;DHT22;39717;47.324;8.788;2022-09-20T04:37:44;6.50;99.90
50816;DHT22;39717;47.324;8.788;2022-09-20T04:45:38;6.50;99.90
50816;DHT22;39717;47.324;8.788;2022-09-20T05:16:39;6.30;99.90
50816;DHT22;39717;47.324;8.788;2022-09-20T05:28:27;6.40;99.90
50816;DHT22;39717;47.324;8.788;2022-09-20T05:31:08;6.30;99.90
50816;DHT22;39717;47.324;8.788;2022-09-20T05:34:26;6.40;99.90
50816;DHT22;39717;47.324;8.788;2022-09-20T05:36:53;6.40;99.90
50816;DHT22;39717;47.324;8.788;2022-09-20T05:39:41;6.50;99.90
50816;DHT22;39717;47.324;8.788;2022-09-20T05:42:19;6.50;99.90
50816;DHT22;39717;47.324;8.788;2022-09-20T05:45:04;6.50;99.90
50816;DHT22;39717;47.324;8.788;2022-09-20T06:05:58;6.80;99.90
50816;DHT22;39717;47.324;8.788;2022-09-20T06:10:56;6.90;99.90
50816;DHT22;39717;47.324;8.788;2022-09-20T06:13:42;7.00;99.90
50816;DHT22;39717;47.324;8.788;2022-09-20T06:16:21;7.10;99.90
50816;DHT22;39717;47.324;8.788;2022-09-20T06:19:11;7.10;99.90
50816;DHT22;39717;47.324;8.788;2022-09-20T06:21:53;7.20;99.90
50816;DHT22;39717;47.324;8.788;2022-09-20T06:24:45;7.20;99.90
50816;DHT22;39717;47.324;8.788;2022-09-20T06:27:18;7.30;99.90
50816;DHT22;39717;47.324;8.788;2022-09-20T06:29:59;7.40;99.90
50816;DHT22;39717;47.324;8.788;2022-09-20T06:32:26;7.40;99.90
50816;DHT22;39717;47.324;8.788;2022-09-20T06:34:52;7.50;99.90
50816;DHT22;39717;47.324;8.788;2022-09-20T06:40:34;7.70;99.90
50816;DHT22;39717;47.324;8.788;2022-09-20T06:43:29;7.80;99.90
50816;DHT22;39717;47.324;8.788;2022-09-20T06:45:56;7.90;99.90
50816;DHT22;39717;47.324;8.788;2022-09-20T06:48:22;7.90;99.90
50816;DHT22;39717;47.324;8.788;2022-09-20T06:50:50;8.10;99.90
50816;DHT22;39717;47.324;8.788;2022-09-20T06:53:19;8.10;99.90
50816;DHT22;39717;47.324;8.788;2022-09-20T06:55:47;8.20;99.90
50816;DHT22;39717;47.324;8.788;2022-09-20T06:58:13;8.30;99.90
50816;DHT22;39717;47.324;8.788;2022-09-20T07:00:38;8.40;99.90
50816;DHT22;39717;47.324;8.788;2022-09-20T07:03:06;8.50;99.90
50816;DHT22;39717;47.324;8.788;2022-09-20T07:05:32;8.50;99.90
50816;DHT22;39717;47.324;8.788;2022-09-20T07:07:58;8.60;99.90
50816;DHT22;39717;47.324;8.788;2022-09-20T07:10:27;8.70;99.90
50816;DHT22;39717;47.324;8.788;2022-09-20T07:13:00;8.80;99.90
50816;DHT22;39717;47.324;8.788;2022-09-20T07:15:33;8.90;99.90
50816;DHT22;39717;47.324;8.788;2022-09-20T07:17:59;9.00;99.90
50816;DHT22;39717;47.324;8.788;2022-09-20T07:20:26;9.10;99.90
50816;DHT22;39717;47.324;8.788;2022-09-20T07:22:51;9.30;99.90
50816;DHT22;39717;47.324;8.788;2022-09-20T07:25:19;9.40;99.90
50816;DHT22;39717;47.324;8.788;2022-09-20T07:27:47;9.50;99.90
50816;DHT22;39717;47.324;8.788;2022-09-20T07:30:16;9.50;99.90
50816;DHT22;39717;47.324;8.788;2022-09-20T07:32:42;9.60;99.90
50816;DHT22;39717;47.324;8.788;2022-09-20T07:35:11;9.70;99.90
50816;DHT22;39717;47.324;8.788;2022-09-20T07:37:37;9.80;98.30
50816;DHT22;39717;47.324;8.788;2022-09-20T07:40:08;9.80;97.50
50816;DHT22;39717;47.324;8.788;2022-09-20T07:42:34;9.90;97.20
50816;DHT22;39717;47.324;8.788;2022-09-20T07:45:00;10.00;96.70
50816;DHT22;39717;47.324;8.788;2022-09-20T07:47:31;10.00;98.30
50816;DHT22;39717;47.324;8.788;2022-09-20T07:50:00;10.20;93.30
50816;DHT22;39717;47.324;8.788;2022-09-20T07:52:26;10.20;93.20
50816;DHT22;39717;47.324;8.788;2022-09-20T07:54:52;10.30;91.30
50816;DHT22;39717;47.324;8.788;2022-09-20T07:57:19;10.30;91.10
50816;DHT22;39717;47.324;8.788;2022-09-20T07:59:45;10.40;90.60
50816;DHT22;39717;47.324;8.788;2022-09-20T08:02:14;10.40;90.40
50816;DHT22;39717;47.324;8.788;2022-09-20T08:04:40;10.40;90.80
50816;DHT22;39717;47.324;8.788;2022-09-20T08:07:06;10.50;91.00
50816;DHT22;39717;47.324;8.788;2022-09-20T08:09:32;10.60;89.90
50816;DHT22;39717;47.324;8.788;2022-09-20T08:11:57;10.70;87.00
50816;DHT22;39717;47.324;8.788;2022-09-20T08:14:23;10.80;87.10
50816;DHT22;39717;47.324;8.788;2022-09-20T08:16:50;10.80;89.50
50816;DHT22;39717;47.324;8.788;2022-09-20T08:19:17;10.90;90.10
50816;DHT22;39717;47.324;8.788;2022-09-20T08:21:44;11.00;91.90
50816;DHT22;39717;47.324;8.788;2022-09-20T08:24:10;11.00;88.60
50816;DHT22;39717;47.324;8.788;2022-09-20T08:26:36;11.00;84.80
50816;DHT22;39717;47.324;8.788;2022-09-20T08:29:03;11.00;84.00
50816;DHT22;39717;47.324;8.788;2022-09-20T08:31:32;11.10;92.50
50816;DHT22;39717;47.324;8.788;2022-09-20T08:34:03;11.10;81.50
50816;DHT22;39717;47.324;8.788;2022-09-20T08:36:31;11.20;77.60
50816;DHT22;39717;47.324;8.788;2022-09-20T08:38:57;11.30;78.10
50816;DHT22;39717;47.324;8.788;2022-09-20T08:41:39;11.40;75.70
50816;DHT22;39717;47.324;8.788;2022-09-20T08:44:23;11.50;74.40
50816;DHT22;39717;47.324;8.788;2022-09-20T08:47:03;11.50;73.60
50816;DHT22;39717;47.324;8.788;2022-09-20T08:49:32;11.60;72.50
50816;DHT22;39717;47.324;8.788;2022-09-20T08:51:59;11.60;72.50
50816;DHT22;39717;47.324;8.788;2022-09-20T08:54:30;11.80;68.40
50816;DHT22;39717;47.324;8.788;2022-09-20T08:57:05;11.90;67.60
50816;DHT22;39717;47.324;8.788;2022-09-20T08:59:35;12.00;66.80
50816;DHT22;39717;47.324;8.788;2022-09-20T09:02:01;12.00;65.40
50816;DHT22;39717;47.324;8.788;2022-09-20T09:04:35;12.00;65.80
50816;DHT22;39717;47.324;8.788;2022-09-20T09:07:02;12.10;65.50
50816;DHT22;39717;47.324;8.788;2022-09-20T09:09:29;12.20;64.90
50816;DHT22;39717;47.324;8.788;2022-09-20T09:11:56;12.30;63.60
50816;DHT22;39717;47.324;8.788;2022-09-20T09:14:24;12.40;62.80
50816;DHT22;39717;47.324;8.788;2022-09-20T09:17:11;12.60;59.20
50816;DHT22;39717;47.324;8.788;2022-09-20T09:19:49;12.80;57.30
50816;DHT22;39717;47.324;8.788;2022-09-20T09:22:21;12.90;52.60
50816;DHT22;39717;47.324;8.788;2022-09-20T09:30:40;13.10;49.50
50816;DHT22;39717;47.324;8.788;2022-09-20T09:35:43;13.30;46.90
50816;DHT22;39717;47.324;8.788;2022-09-20T09:38:25;13.40;42.50
50816;DHT22;39717;47.324;8.788;2022-09-20T09:40:55;13.50;42.70
50816;DHT22;39717;47.324;8.788;2022-09-20T09:43:32;13.60;42.30
50816;DHT22;39717;47.324;8.788;2022-09-20T09:46:22;13.70;41.00
50816;DHT22;39717;47.324;8.788;2022-09-20T09:49:17;13.90;40.40
50816;DHT22;39717;47.324;8.788;2022-09-20T09:54:54;14.10;37.70
50816;DHT22;39717;47.324;8.788;2022-09-20T10:00:13;14.40;35.40
50816;DHT22;39717;47.324;8.788;2022-09-20T10:03:11;14.10;36.20
